Time;durP1;ratioP1;P1;durP2;ratioP2;P2;SDS_P1;SDS_P2;PMS_P1;PMS_P2;Temp;Humidity;BMP_temperature;BMP_pressure;BME280_temperature;BME280_humidity;BME280_pressure;Samples;Min_cycle;Max_cycle;Signal;HPM_P1;HPM_P2
2023/01/07 00:01:29;;;;;;;2.78;1.48;;;9.40;1.00;;;;;;5032693;28;20040;-78
2023/01/07 00:03:57;;;;;;;3.20;1.90;;;9.40;1.00;;;;;;5068719;28;20029;-78
2023/01/07 00:06:29;;;;;;;3.33;1.85;;;9.40;1.00;;;;;;5070815;28;20037;-79
2023/01/07 00:08:56;;;;;;;4.25;2.28;;;9.30;1.00;;;;;;5072745;28;20256;-78
2023/01/07 00:11:26;;;;;;;4.25;1.92;;;9.30;1.00;;;;;;5052784;28;20039;-78
2023/01/07 00:13:54;;;;;;;3.20;1.90;;;9.30;1.00;;;;;;5069037;28;20033;-79
2023/01/07 00:16:23;;;;;;;3.45;1.52;;;9.30;1.00;;;;;;5053009;28;20043;-78
2023/01/07 00:18:53;;;;;;;3.03;1.80;;;9.30;1.00;;;;;;5088776;28;20061;-79
2023/01/07 00:21:21;;;;;;;3.73;2.10;;;9.30;1.00;;;;;;5080052;28;20373;-78
2023/01/07 00:23:47;;;;;;;3.83;1.98;;;9.30;1.00;;;;;;5083290;28;20040;-79
2023/01/07 00:26:19;;;;;;;2.95;1.80;;;9.30;1.00;;;;;;5078981;28;20032;-80
2023/01/07 00:28:48;;;;;;;2.45;1.55;;;9.20;1.00;;;;;;5076245;28;20048;-80
2023/01/07 00:31:26;;;;;;;3.95;1.75;;;9.20;1.00;;;;;;5055399;28;20047;-80
2023/01/07 00:34:05;;;;;;;4.15;2.33;;;9.30;1.00;;;;;;5054258;28;20045;-79
2023/01/07 00:36:35;;;;;;;2.72;1.67;;;9.30;1.00;;;;;;5072498;28;20037;-80
2023/01/07 00:39:11;;;;;;;2.42;1.52;;;9.30;1.00;;;;;;5072963;28;20037;-80
2023/01/07 00:41:38;;;;;;;3.97;2.05;;;9.20;1.00;;;;;;5071202;28;20044;-80
2023/01/07 00:44:05;;;;;;;4.22;2.65;;;9.30;1.00;;;;;;5073578;28;20028;-79
2023/01/07 00:46:32;;;;;;;4.53;2.20;;;9.20;1.00;;;;;;5076620;28;20032;-78
2023/01/07 00:49:00;;;;;;;3.63;1.98;;;9.30;1.00;;;;;;5064681;28;20037;-79
2023/01/07 00:51:26;;;;;;;3.58;1.73;;;9.20;1.00;;;;;;5084658;28;20042;-79
2023/01/07 00:53:52;;;;;;;2.58;1.55;;;9.20;1.00;;;;;;5074985;28;20024;-79
2023/01/07 00:56:19;;;;;;;3.60;2.38;;;9.20;1.00;;;;;;5072985;28;20028;-79
2023/01/07 00:58:45;;;;;;;3.65;1.55;;;9.20;1.00;;;;;;5072105;28;20032;-79
2023/01/07 01:01:12;;;;;;;5.28;2.20;;;9.20;1.00;;;;;;5079651;28;20039;-79
2023/01/07 01:03:39;;;;;;;4.38;2.28;;;9.20;1.00;;;;;;5072079;28;20048;-80
2023/01/07 01:06:09;;;;;;;6.03;2.80;;;9.20;1.00;;;;;;5078561;28;20044;-79
2023/01/07 01:08:35;;;;;;;5.55;1.95;;;9.10;1.00;;;;;;5072091;28;20047;-79
2023/01/07 01:11:06;;;;;;;3.58;1.60;;;9.20;1.00;;;;;;5091754;28;20052;-79
2023/01/07 01:13:34;;;;;;;3.92;2.35;;;9.10;1.00;;;;;;5081536;28;20512;-79
2023/01/07 01:16:00;;;;;;;3.80;2.00;;;9.20;1.00;;;;;;5075897;28;20381;-79
2023/01/07 01:18:26;;;;;;;3.42;2.03;;;9.20;1.00;;;;;;5040854;28;20063;-79
2023/01/07 01:20:53;;;;;;;4.15;2.15;;;9.20;1.00;;;;;;5040125;28;20043;-79
2023/01/07 01:23:20;;;;;;;3.55;2.13;;;9.20;1.00;;;;;;5054884;28;20032;-79
2023/01/07 01:25:47;;;;;;;3.05;1.88;;;9.20;1.00;;;;;;5035024;28;20033;-79
2023/01/07 01:28:13;;;;;;;4.75;2.30;;;9.20;1.00;;;;;;5057854;28;20033;-79
2023/01/07 01:30:39;;;;;;;4.55;1.73;;;9.20;1.00;;;;;;5051821;28;20033;-80
2023/01/07 01:33:07;;;;;;;4.93;2.47;;;9.20;1.00;;;;;;5034152;28;20474;-79
2023/01/07 01:35:37;;;;;;;4.22;2.38;;;9.30;1.00;;;;;;5032521;28;20045;-79
2023/01/07 01:38:03;;;;;;;4.10;1.88;;;9.30;1.00;;;;;;5040051;28;20056;-79
2023/01/07 01:40:31;;;;;;;5.00;2.05;;;9.30;1.00;;;;;;5040599;28;20052;-79
2023/01/07 01:42:57;;;;;;;4.78;2.45;;;9.20;1.00;;;;;;5033276;28;20496;-79
2023/01/07 01:45:24;;;;;;;3.47;1.73;;;9.20;1.00;;;;;;5033551;28;20037;-79
2023/01/07 01:47:58;;;;;;;3.75;2.00;;;9.20;1.00;;;;;;5038755;28;20254;-79
2023/01/07 01:50:34;;;;;;;3.88;2.13;;;9.20;1.00;;;;;;5034004;28;20390;-79
2023/01/07 01:53:21;;;;;;;4.50;1.98;;;9.20;1.00;;;;;;5035939;28;20444;-79
2023/01/07 01:55:54;;;;;;;3.53;2.55;;;9.20;1.00;;;;;;5060063;28;20036;-79
2023/01/07 01:58:28;;;;;;;3.08;1.95;;;9.20;1.00;;;;;;5054017;28;20374;-79
2023/01/07 02:00:57;;;;;;;7.32;2.25;;;9.20;1.00;;;;;;5054298;28;20055;-79
2023/01/07 02:03:25;;;;;;;4.78;2.53;;;9.20;1.00;;;;;;5053720;28;20496;-79
2023/01/07 02:05:51;;;;;;;3.22;2.53;;;9.20;1.00;;;;;;5062370;28;20040;-79
2023/01/07 02:08:21;;;;;;;5.50;2.40;;;9.20;1.00;;;;;;5033293;28;20048;-79
2023/01/07 02:11:13;;;;;;;4.40;2.13;;;9.20;1.00;;;;;;5030002;28;20049;-79
2023/01/07 02:14:12;;;;;;;3.88;2.00;;;9.20;1.00;;;;;;5045824;28;20048;-80
2023/01/07 02:16:42;;;;;;;3.85;2.15;;;9.20;1.00;;;;;;5041704;28;20508;-80
2023/01/07 02:19:40;;;;;;;4.35;2.50;;;9.20;1.00;;;;;;5071985;28;20044;-79
2023/01/07 02:22:41;;;;;;;6.40;2.50;;;9.30;1.00;;;;;;5084514;28;20040;-80
2023/01/07 02:25:19;;;;;;;3.88;2.22;;;9.20;1.00;;;;;;5091866;28;20040;-79
2023/01/07 02:27:55;;;;;;;6.18;2.17;;;9.20;1.00;;;;;;5082008;28;20051;-79
2023/01/07 02:30:54;;;;;;;5.10;2.20;;;9.20;1.00;;;;;;5084304;28;20036;-80
2023/01/07 02:33:41;;;;;;;5.40;2.00;;;9.20;1.00;;;;;;5091950;28;20028;-79
2023/01/07 02:36:28;;;;;;;6.95;2.22;;;9.20;1.00;;;;;;5076302;28;20474;-80
2023/01/07 02:39:25;;;;;;;4.03;1.92;;;9.30;1.00;;;;;;5072952;28;20055;-79
2023/01/07 02:42:03;;;;;;;3.13;1.17;;;9.20;1.00;;;;;;5071123;28;20032;-80
2023/01/07 02:44:47;;;;;;;3.15;1.85;;;9.20;1.00;;;;;;5078784;28;20040;-78
2023/01/07 02:47:42;;;;;;;4.65;1.83;;;9.20;1.00;;;;;;5075187;28;20055;-78
2023/01/07 02:50:08;;;;;;;4.15;1.92;;;9.20;1.00;;;;;;5077734;28;20036;-79
2023/01/07 02:52:36;;;;;;;2.40;1.23;;;9.20;1.00;;;;;;5077106;28;20032;-79
2023/01/07 02:55:08;;;;;;;2.83;1.73;;;9.20;1.00;;;;;;5076008;28;20051;-78
2023/01/07 02:58:23;;;;;;;3.17;1.60;;;9.20;1.00;;;;;;5075645;28;20055;-77
2023/01/07 03:01:20;;;;;;;2.25;1.25;;;9.20;1.00;;;;;;4992540;28;20505;-78
2023/01/07 03:04:24;;;;;;;2.15;1.05;;;9.20;1.00;;;;;;5001659;28;20041;-79
2023/01/07 03:07:18;;;;;;;2.55;1.60;;;9.20;1.00;;;;;;5071786;28;20040;-79
2023/01/07 03:09:59;;;;;;;5.10;1.25;;;9.20;1.00;;;;;;5074631;28;20067;-79
2023/01/07 03:12:44;;;;;;;1.63;1.10;;;9.20;1.00;;;;;;5059611;28;20040;-79
2023/01/07 03:15:20;;;;;;;2.53;1.13;;;9.20;1.00;;;;;;5089509;28;20048;-79
2023/01/07 03:17:57;;;;;;;2.17;0.88;;;9.20;1.00;;;;;;5060802;28;20044;-81
2023/01/07 03:20:24;;;;;;;2.50;1.20;;;9.20;1.00;;;;;;5081972;28;20400;-80
2023/01/07 03:22:52;;;;;;;3.90;1.42;;;9.20;1.00;;;;;;5074844;28;20040;-79
2023/01/07 03:25:21;;;;;;;1.77;0.90;;;9.20;1.00;;;;;;5063310;28;20047;-78
2023/01/07 03:27:52;;;;;;;2.15;1.13;;;9.20;1.00;;;;;;5071500;28;20067;-81
2023/01/07 03:30:19;;;;;;;2.95;1.02;;;9.20;1.00;;;;;;5073311;28;20397;-81
2023/01/07 03:33:10;;;;;;;2.55;1.38;;;9.20;1.00;;;;;;5074126;28;20036;-79
2023/01/07 03:35:41;;;;;;;3.20;1.30;;;9.20;1.00;;;;;;5082359;28;20028;-80
2023/01/07 03:38:08;;;;;;;4.97;1.80;;;9.20;1.00;;;;;;5075747;28;20048;-79
2023/01/07 03:40:36;;;;;;;3.00;1.50;;;9.20;1.00;;;;;;5079916;28;20040;-79
2023/01/07 03:43:03;;;;;;;4.80;1.25;;;9.20;1.00;;;;;;5073926;28;20489;-80
2023/01/07 03:45:30;;;;;;;2.42;1.17;;;9.20;1.00;;;;;;5074375;28;20036;-80
2023/01/07 03:47:58;;;;;;;2.35;1.15;;;9.20;1.00;;;;;;5084201;28;20055;-80
2023/01/07 03:50:31;;;;;;;4.28;2.10;;;9.20;1.00;;;;;;5073463;28;20047;-80
2023/01/07 03:52:57;;;;;;;2.58;1.55;;;9.20;1.00;;;;;;5079553;28;20036;-80
2023/01/07 03:55:24;;;;;;;2.80;1.23;;;9.20;1.00;;;;;;5076274;28;20389;-80
2023/01/07 03:57:53;;;;;;;3.35;1.63;;;9.20;1.00;;;;;;5070796;28;20048;-80
2023/01/07 04:00:19;;;;;;;3.50;1.63;;;9.10;1.00;;;;;;5072683;28;20064;-80
2023/01/07 04:02:53;;;;;;;2.97;1.63;;;9.20;1.00;;;;;;5085617;28;20044;-79
2023/01/07 04:05:24;;;;;;;3.75;1.90;;;9.10;1.00;;;;;;5079111;28;20374;-79
2023/01/07 04:07:51;;;;;;;3.25;1.38;;;9.10;1.00;;;;;;5070347;28;20040;-80
2023/01/07 04:10:18;;;;;;;3.05;1.85;;;9.10;1.00;;;;;;5072320;28;20037;-79
2023/01/07 04:12:45;;;;;;;4.43;1.80;;;9.10;1.00;;;;;;5072550;28;20043;-79
2023/01/07 04:15:11;;;;;;;2.72;1.70;;;9.10;1.00;;;;;;5073176;28;20036;-79
2023/01/07 04:17:37;;;;;;;2.58;1.52;;;9.10;1.00;;;;;;5070212;28;20044;-79
2023/01/07 04:20:06;;;;;;;4.22;1.60;;;9.10;1.00;;;;;;5078427;28;20040;-79
2023/01/07 04:22:33;;;;;;;3.72;1.80;;;9.10;1.00;;;;;;5086263;28;20067;-79
2023/01/07 04:24:59;;;;;;;2.90;1.92;;;9.10;1.00;;;;;;5091475;28;20043;-79
2023/01/07 04:27:25;;;;;;;3.40;2.00;;;9.10;1.00;;;;;;5091066;28;20036;-78
2023/01/07 04:29:52;;;;;;;3.25;1.90;;;9.10;1.00;;;;;;5083620;28;20036;-78
2023/01/07 04:32:19;;;;;;;4.07;2.10;;;9.10;1.00;;;;;;5105014;28;20046;-78
2023/01/07 04:34:45;;;;;;;2.25;1.65;;;9.10;1.00;;;;;;5098712;28;20041;-78
2023/01/07 04:37:11;;;;;;;3.63;1.95;;;9.10;1.00;;;;;;5092629;28;20466;-79
2023/01/07 04:39:38;;;;;;;4.32;1.98;;;9.10;1.00;;;;;;5076881;28;20043;-78
2023/01/07 04:42:04;;;;;;;2.88;1.75;;;9.10;1.00;;;;;;5071791;28;20048;-78
2023/01/07 04:44:31;;;;;;;3.60;1.60;;;9.10;1.00;;;;;;5071643;28;20064;-78
2023/01/07 04:46:57;;;;;;;2.17;1.48;;;9.10;1.00;;;;;;5076531;28;20051;-78
2023/01/07 04:49:24;;;;;;;5.07;1.80;;;9.10;1.00;;;;;;5085643;28;20048;-77
2023/01/07 04:51:52;;;;;;;3.22;1.98;;;9.10;1.00;;;;;;5071659;28;20039;-78
2023/01/07 04:54:18;;;;;;;3.80;1.73;;;9.10;1.00;;;;;;5091561;28;20044;-78
2023/01/07 04:56:44;;;;;;;2.85;1.83;;;9.10;1.00;;;;;;5087652;28;20041;-78
2023/01/07 04:59:12;;;;;;;2.50;1.98;;;9.10;1.00;;;;;;5078057;28;20054;-77
2023/01/07 05:01:38;;;;;;;3.10;1.92;;;9.10;1.00;;;;;;5085224;28;20415;-77
2023/01/07 05:04:06;;;;;;;3.47;2.30;;;9.10;1.00;;;;;;5070892;28;20045;-77
2023/01/07 05:06:32;;;;;;;4.82;2.90;;;9.10;1.00;;;;;;5083376;28;20044;-77
2023/01/07 05:08:59;;;;;;;4.72;2.05;;;9.10;1.00;;;;;;5071139;28;20492;-78
2023/01/07 05:11:25;;;;;;;5.60;2.75;;;9.10;1.00;;;;;;5077813;28;20437;-78
2023/01/07 05:13:57;;;;;;;4.35;2.05;;;9.10;1.00;;;;;;5072083;28;20047;-77
2023/01/07 05:16:24;;;;;;;3.17;2.28;;;9.10;1.00;;;;;;5076107;28;20492;-77
2023/01/07 05:18:52;;;;;;;4.60;2.47;;;9.00;1.00;;;;;;5090398;28;20056;-79
2023/01/07 05:21:18;;;;;;;4.45;2.13;;;9.00;1.00;;;;;;5084933;28;20036;-77
2023/01/07 05:23:44;;;;;;;4.25;2.17;;;9.00;1.00;;;;;;5085656;28;20036;-77
2023/01/07 05:26:11;;;;;;;4.88;2.67;;;9.00;1.00;;;;;;5088954;28;20032;-78
2023/01/07 05:28:37;;;;;;;6.65;2.30;;;9.00;1.00;;;;;;5078539;28;20051;-77
2023/01/07 05:31:04;;;;;;;6.22;2.97;;;9.00;1.00;;;;;;5067509;28;20039;-78
2023/01/07 05:33:31;;;;;;;5.80;2.40;;;9.00;1.00;;;;;;5090912;28;20122;-77
2023/01/07 05:35:57;;;;;;;4.35;2.40;;;9.00;1.00;;;;;;5076979;28;20315;-78
2023/01/07 05:38:24;;;;;;;5.45;2.50;;;9.00;1.00;;;;;;5072188;28;20048;-77
2023/01/07 05:40:50;;;;;;;4.03;2.22;;;9.00;1.00;;;;;;5070260;28;20484;-78
2023/01/07 05:43:20;;;;;;;4.72;2.85;;;9.00;1.00;;;;;;5063369;28;20512;-78
2023/01/07 05:45:46;;;;;;;3.85;2.20;;;9.00;1.00;;;;;;5070408;28;20381;-78
2023/01/07 05:48:13;;;;;;;4.63;2.17;;;9.00;1.00;;;;;;5075451;28;20048;-77
2023/01/07 05:50:39;;;;;;;3.55;1.98;;;9.00;1.00;;;;;;5076823;28;20032;-77
2023/01/07 05:53:05;;;;;;;2.58;1.75;;;8.90;1.00;;;;;;5073174;28;20382;-77
2023/01/07 05:55:32;;;;;;;2.42;1.73;;;9.00;1.00;;;;;;5071293;28;20029;-78
2023/01/07 05:57:58;;;;;;;3.00;1.75;;;9.00;1.00;;;;;;5070606;28;20079;-77
2023/01/07 06:00:24;;;;;;;2.95;1.50;;;8.90;1.00;;;;;;5070354;28;20044;-77
2023/01/07 06:02:50;;;;;;;3.28;1.73;;;8.90;1.00;;;;;;5076620;28;20123;-78
2023/01/07 06:05:17;;;;;;;3.38;1.73;;;9.00;1.00;;;;;;5073256;28;20393;-77
2023/01/07 06:07:43;;;;;;;2.22;1.23;;;9.00;1.00;;;;;;5076508;28;20040;-80
2023/01/07 06:10:10;;;;;;;2.03;1.17;;;9.00;1.00;;;;;;5084070;28;20032;-78
2023/01/07 06:12:36;;;;;;;2.20;0.95;;;9.00;1.00;;;;;;5077783;28;20037;-77
2023/01/07 06:15:02;;;;;;;3.60;1.58;;;8.90;1.00;;;;;;5081967;28;20458;-77
2023/01/07 06:17:28;;;;;;;3.15;1.52;;;8.90;1.00;;;;;;5063397;28;20059;-78
2023/01/07 06:19:54;;;;;;;1.45;0.93;;;8.90;1.00;;;;;;5051068;28;20417;-77
2023/01/07 06:22:20;;;;;;;3.53;1.45;;;8.90;1.00;;;;;;5034690;28;20464;-77
2023/01/07 06:24:48;;;;;;;3.03;1.80;;;8.90;1.00;;;;;;5052420;28;20566;-77
2023/01/07 06:27:14;;;;;;;3.22;1.10;;;8.90;1.00;;;;;;5030944;28;20044;-77
2023/01/07 06:29:40;;;;;;;1.80;1.00;;;8.80;1.00;;;;;;5051640;28;20036;-77
2023/01/07 06:32:06;;;;;;;2.55;1.10;;;8.80;1.00;;;;;;5051003;28;20033;-77
2023/01/07 06:34:33;;;;;;;2.83;1.00;;;8.80;1.00;;;;;;5051187;28;20029;-77
2023/01/07 06:36:59;;;;;;;2.33;1.15;;;8.80;1.00;;;;;;5061780;28;20029;-77
2023/01/07 06:39:25;;;;;;;1.60;1.05;;;8.80;1.00;;;;;;5052154;28;20037;-77
2023/01/07 06:41:51;;;;;;;2.65;0.95;;;8.80;1.00;;;;;;5038933;28;20036;-79
2023/01/07 06:44:18;;;;;;;2.72;1.25;;;8.80;1.00;;;;;;5053464;28;20035;-79
2023/01/07 06:46:44;;;;;;;3.08;1.27;;;8.80;1.00;;;;;;5051917;28;20029;-79
2023/01/07 06:49:10;;;;;;;2.67;1.10;;;8.80;1.00;;;;;;5057492;28;20041;-79
2023/01/07 06:51:36;;;;;;;3.15;1.38;;;8.80;1.00;;;;;;5034708;28;20037;-79
2023/01/07 06:54:03;;;;;;;3.55;1.35;;;8.80;1.00;;;;;;5070633;28;20033;-79
2023/01/07 06:56:29;;;;;;;2.28;1.00;;;8.80;1.00;;;;;;5035398;28;20048;-79
2023/01/07 06:58:55;;;;;;;2.60;1.40;;;8.80;1.00;;;;;;5033513;28;20055;-79
2023/01/07 07:01:21;;;;;;;2.20;1.27;;;8.80;1.00;;;;;;5061720;28;20478;-79
2023/01/07 07:03:47;;;;;;;2.70;1.23;;;8.80;1.00;;;;;;5054803;28;20386;-79
2023/01/07 07:06:13;;;;;;;3.20;1.55;;;8.80;1.00;;;;;;5066339;28;20028;-79
2023/01/07 07:08:40;;;;;;;2.65;1.75;;;8.80;1.00;;;;;;5037680;28;20051;-80
2023/01/07 07:11:06;;;;;;;4.35;1.45;;;8.80;1.00;;;;;;5066016;28;20028;-80
2023/01/07 07:13:32;;;;;;;2.85;1.50;;;8.80;1.00;;;;;;5044070;28;20396;-81
2023/01/07 07:15:58;;;;;;;3.88;2.00;;;8.80;1.00;;;;;;5053736;28;20393;-80
2023/01/07 07:18:25;;;;;;;4.00;1.40;;;8.80;1.00;;;;;;5073712;28;20043;-79
2023/01/07 07:20:51;;;;;;;3.22;1.70;;;8.80;1.00;;;;;;5075100;28;20040;-83
2023/01/07 07:23:18;;;;;;;3.78;1.50;;;8.80;1.00;;;;;;5086186;28;20040;-83
2023/01/07 07:25:44;;;;;;;3.13;1.52;;;8.70;1.00;;;;;;5087171;28;20434;-83
2023/01/07 07:28:10;;;;;;;3.40;2.28;;;8.70;1.00;;;;;;5074275;28;20043;-80
2023/01/07 07:30:36;;;;;;;3.10;1.70;;;8.80;1.00;;;;;;5073737;28;20028;-79
2023/01/07 07:33:03;;;;;;;2.17;1.23;;;8.80;1.00;;;;;;5072544;28;20041;-79
2023/01/07 07:35:32;;;;;;;2.40;1.33;;;8.80;1.00;;;;;;5071908;28;20488;-81
2023/01/07 07:37:59;;;;;;;2.35;1.25;;;8.80;1.00;;;;;;5073992;28;20032;-79
2023/01/07 07:40:25;;;;;;;2.35;1.38;;;8.80;1.00;;;;;;5081467;28;20047;-79
2023/01/07 07:42:51;;;;;;;2.05;0.80;;;8.90;1.00;;;;;;5073137;28;20036;-79
2023/01/07 07:45:18;;;;;;;2.90;1.60;;;8.90;1.00;;;;;;5079375;28;20398;-80
2023/01/07 07:47:45;;;;;;;3.72;0.98;;;8.90;1.00;;;;;;5078694;28;20048;-80
2023/01/07 07:50:11;;;;;;;1.98;0.90;;;9.00;1.00;;;;;;5082631;28;20051;-80
2023/01/07 07:52:38;;;;;;;2.35;1.08;;;9.00;1.00;;;;;;5084425;28;20029;-80
2023/01/07 07:55:04;;;;;;;4.68;1.10;;;9.00;1.00;;;;;;5082452;28;20028;-81
2023/01/07 07:57:30;;;;;;;1.80;0.90;;;9.00;1.00;;;;;;5076544;28;20393;-81
2023/01/07 07:59:56;;;;;;;1.63;1.00;;;9.00;1.00;;;;;;5074129;28;20036;-86
2023/01/07 08:02:22;;;;;;;1.60;0.95;;;9.00;1.00;;;;;;5080402;28;20044;-80
2023/01/07 08:04:49;;;;;;;1.90;1.02;;;9.00;1.00;;;;;;5079661;28;20043;-81
2023/01/07 08:07:18;;;;;;;2.00;0.85;;;9.00;1.00;;;;;;5072725;28;20389;-81
2023/01/07 08:09:44;;;;;;;1.92;0.90;;;9.00;1.00;;;;;;5056778;28;20044;-81
2023/01/07 08:12:10;;;;;;;1.80;0.88;;;9.10;1.00;;;;;;5069875;28;20389;-81
2023/01/07 08:14:36;;;;;;;2.08;1.23;;;9.10;1.00;;;;;;5077938;28;20051;-81
2023/01/07 08:17:02;;;;;;;1.80;0.80;;;9.10;1.00;;;;;;5064169;28;20052;-81
2023/01/07 08:19:28;;;;;;;1.58;0.80;;;9.10;1.00;;;;;;5053408;28;20037;-81
2023/01/07 08:21:55;;;;;;;3.00;0.88;;;9.20;1.00;;;;;;5060939;28;20033;-81
2023/01/07 08:24:21;;;;;;;1.40;0.70;;;9.20;1.00;;;;;;5068575;28;20029;-81
2023/01/07 08:26:47;;;;;;;1.65;0.82;;;9.20;1.00;;;;;;5063713;28;20363;-82
2023/01/07 08:29:13;;;;;;;1.80;0.80;;;9.20;1.00;;;;;;5039776;28;20047;-80
2023/01/07 08:31:39;;;;;;;3.70;1.02;;;9.20;1.00;;;;;;5054863;28;20036;-81
2023/01/07 08:34:05;;;;;;;1.00;0.70;;;9.20;1.00;;;;;;5060194;28;20051;-82
2023/01/07 08:36:31;;;;;;;3.08;1.05;;;9.30;1.00;;;;;;5040250;28;20062;-82
2023/01/07 08:38:58;;;;;;;1.35;0.75;;;9.30;1.00;;;;;;5035784;28;20040;-81
2023/01/07 08:41:24;;;;;;;3.33;1.17;;;9.30;1.00;;;;;;5036016;28;20040;-82
2023/01/07 08:43:51;;;;;;;4.65;1.00;;;9.30;1.00;;;;;;5066764;28;20040;-82
2023/01/07 08:46:17;;;;;;;2.47;0.98;;;9.40;1.00;;;;;;5052898;28;20391;-81
2023/01/07 08:48:44;;;;;;;2.80;1.00;;;9.40;1.00;;;;;;5034278;28;20045;-82
2023/01/07 08:51:10;;;;;;;2.08;0.80;;;9.40;1.00;;;;;;5061599;28;20039;-82
2023/01/07 08:53:36;;;;;;;1.98;0.90;;;9.50;1.00;;;;;;5058539;28;20040;-82
2023/01/07 08:56:02;;;;;;;1.40;0.75;;;9.50;1.00;;;;;;5039250;28;20049;-82
2023/01/07 08:58:28;;;;;;;2.05;0.95;;;9.50;1.00;;;;;;5065276;28;20340;-81
2023/01/07 09:01:04;;;;;;;4.43;1.13;;;9.60;1.00;;;;;;5048284;28;20044;-81
2023/01/07 09:03:30;;;;;;;2.42;0.80;;;9.60;1.00;;;;;;5056908;28;20357;-81
2023/01/07 09:05:57;;;;;;;2.47;1.02;;;9.60;1.00;;;;;;5072557;28;20051;-82
2023/01/07 09:08:23;;;;;;;1.60;0.65;;;9.60;1.00;;;;;;5049975;28;20037;-82
2023/01/07 09:10:49;;;;;;;2.15;0.95;;;9.70;1.00;;;;;;5035188;28;20037;-81
2023/01/07 09:13:15;;;;;;;2.05;0.80;;;9.70;1.00;;;;;;5037007;28;20044;-82
2023/01/07 09:15:43;;;;;;;1.85;0.90;;;9.70;1.00;;;;;;5073198;28;20043;-81
2023/01/07 09:18:09;;;;;;;2.78;0.82;;;9.80;1.00;;;;;;5064374;28;20049;-83
2023/01/07 09:20:35;;;;;;;3.10;1.10;;;9.80;1.00;;;;;;5057848;28;20037;-80
2023/01/07 09:23:02;;;;;;;1.35;0.65;;;9.80;1.00;;;;;;5043079;28;20041;-80
2023/01/07 09:25:28;;;;;;;1.15;0.82;;;9.80;1.00;;;;;;5058019;28;20083;-82
2023/01/07 09:27:54;;;;;;;1.20;0.70;;;10.00;1.00;;;;;;5054257;28;20025;-82
2023/01/07 09:30:20;;;;;;;1.00;0.60;;;10.00;1.00;;;;;;5052270;28;20041;-83
2023/01/07 09:32:46;;;;;;;1.50;0.60;;;10.10;1.00;;;;;;5059205;28;20033;-81
2023/01/07 09:35:14;;;;;;;1.55;0.65;;;10.10;1.00;;;;;;5047682;28;20049;-81
2023/01/07 09:37:40;;;;;;;1.70;0.60;;;10.20;1.00;;;;;;5048405;28;20036;-81
2023/01/07 09:40:13;;;;;;;1.75;0.60;;;10.20;1.00;;;;;;5052224;28;20048;-81
2023/01/07 09:42:45;;;;;;;1.00;0.70;;;10.30;1.00;;;;;;5053745;28;20044;-81
2023/01/07 09:45:22;;;;;;;1.20;0.68;;;10.30;1.00;;;;;;5055757;28;20041;-81
2023/01/07 09:47:52;;;;;;;1.02;0.45;;;10.40;1.00;;;;;;5059188;28;20029;-80
2023/01/07 09:50:47;;;;;;;1.27;0.68;;;10.50;99.90;;;;;;5034017;28;20045;-81
2023/01/07 09:53:31;;;;;;;1.55;0.47;;;10.50;99.90;;;;;;5068615;28;20021;-80
2023/01/07 09:55:58;;;;;;;1.65;0.50;;;10.60;99.90;;;;;;5050613;28;20037;-81
2023/01/07 09:58:25;;;;;;;0.85;0.32;;;10.60;99.90;;;;;;5058427;28;20484;-81
2023/01/07 10:01:16;;;;;;;1.85;0.55;;;10.70;99.90;;;;;;5048259;28;20045;-80
2023/01/07 10:04:00;;;;;;;;;;;10.70;99.90;;;;;;5053480;28;20029;-80
2023/01/07 10:06:38;;;;;;;1.10;0.50;;;10.80;99.90;;;;;;5055281;28;19909;-79
2023/01/07 10:09:31;;;;;;;1.92;0.50;;;10.80;99.90;;;;;;5038167;28;20045;-79
2023/01/07 10:12:12;;;;;;;1.08;0.40;;;10.90;99.90;;;;;;5029735;28;20067;-80
2023/01/07 10:14:49;;;;;;;0.50;0.32;;;10.90;99.90;;;;;;5063194;28;20033;-79
2023/01/07 10:17:47;;;;;;;0.95;0.40;;;10.90;99.90;;;;;;5051794;28;20052;-79
2023/01/07 10:20:13;;;;;;;1.02;0.50;;;10.90;99.90;;;;;;5057335;28;20036;-79
2023/01/07 10:23:01;;;;;;;2.72;0.68;;;10.90;99.90;;;;;;5058218;28;20047;-79
2023/01/07 10:25:33;;;;;;;2.03;0.63;;;10.90;99.90;;;;;;5058491;28;20028;-78
2023/01/07 10:28:04;;;;;;;1.23;0.50;;;10.90;99.90;;;;;;5053814;28;20029;-80
2023/01/07 10:30:38;;;;;;;1.25;0.30;;;11.00;99.90;;;;;;5061043;28;20047;-80
2023/01/07 10:33:31;;;;;;;2.15;1.27;;;11.00;99.90;;;;;;5034825;28;20039;-80
2023/01/07 10:36:09;;;;;;;1.35;0.70;;;11.00;99.90;;;;;;5044053;28;20040;-79
2023/01/07 10:38:41;;;;;;;2.47;0.75;;;11.00;99.90;;;;;;5037519;28;20052;-78
2023/01/07 10:41:15;;;;;;;0.90;0.50;;;11.10;99.90;;;;;;5049978;28;20385;-79
2023/01/07 10:44:03;;;;;;;0.80;0.45;;;11.10;99.90;;;;;;5038012;28;20041;-79
2023/01/07 10:46:38;;;;;;;2.35;0.40;;;11.10;99.90;;;;;;5055335;28;20033;-79
2023/01/07 10:49:18;;;;;;;1.05;0.43;;;11.10;99.90;;;;;;5038507;28;20053;-80
2023/01/07 10:51:55;;;;;;;1.08;0.50;;;11.20;99.90;;;;;;5057685;28;20037;-80
2023/01/07 10:54:37;;;;;;;0.85;0.50;;;11.20;99.90;;;;;;5061722;28;20033;-79
2023/01/07 10:57:18;;;;;;;2.05;0.52;;;11.20;99.90;;;;;;5044332;28;20044;-80
2023/01/07 10:59:49;;;;;;;0.90;0.63;;;11.20;99.90;;;;;;5073972;28;20468;-79
2023/01/07 11:02:19;;;;;;;;;;;11.20;99.90;;;;;;5068208;28;20044;-80
2023/01/07 11:04:46;;;;;;;1.92;0.68;;;11.20;99.90;;;;;;5061506;28;20445;-79
2023/01/07 11:07:30;;;;;;;1.15;0.57;;;11.20;99.90;;;;;;5058787;28;20033;-79
2023/01/07 11:10:01;;;;;;;1.52;0.60;;;11.30;99.90;;;;;;5053762;28;20056;-79
2023/01/07 11:12:36;;;;;;;;;;;11.30;99.90;;;;;;5041951;28;20037;-80
2023/01/07 11:15:12;;;;;;;0.95;0.43;;;11.30;99.90;;;;;;5037112;28;19919;-81
2023/01/07 11:17:45;;;;;;;0.88;0.38;;;11.20;99.90;;;;;;5054596;28;20041;-80
2023/01/07 11:20:11;;;;;;;0.52;0.30;;;11.30;99.90;;;;;;5053363;28;20041;-81
2023/01/07 11:22:38;;;;;;;1.15;0.40;;;11.30;99.90;;;;;;5060967;28;20043;-81
2023/01/07 11:25:39;;;;;;;0.93;0.32;;;11.30;99.90;;;;;;5060693;28;20040;-82
2023/01/07 11:28:17;;;;;;;1.58;0.60;;;11.20;99.90;;;;;;5010819;28;20038;-79
2023/01/07 11:30:44;;;;;;;0.90;0.32;;;11.30;99.90;;;;;;5062340;28;20052;-80
2023/01/07 11:33:36;;;;;;;2.10;0.38;;;11.30;99.90;;;;;;5054328;28;20029;-81
2023/01/07 11:36:04;;;;;;;0.95;0.45;;;11.30;99.90;;;;;;5029390;28;20058;-79
2023/01/07 11:38:33;;;;;;;0.38;0.25;;;11.30;99.90;;;;;;5039588;28;20040;-81
2023/01/07 11:41:00;;;;;;;2.42;0.80;;;11.30;99.90;;;;;;5042950;28;20044;-82
2023/01/07 11:43:32;;;;;;;1.52;0.50;;;11.30;99.90;;;;;;5035443;28;20041;-81
2023/01/07 11:46:01;;;;;;;1.20;0.40;;;11.30;99.90;;;;;;5054526;28;20042;-81
2023/01/07 11:48:36;;;;;;;1.10;0.50;;;11.30;99.90;;;;;;5050213;28;20025;-81
2023/01/07 11:51:10;;;;;;;0.85;0.40;;;11.30;99.90;;;;;;5044876;28;20051;-81
2023/01/07 11:53:42;;;;;;;0.95;0.40;;;11.40;99.90;;;;;;5055252;28;20043;-80
2023/01/07 11:56:22;;;;;;;1.33;0.52;;;11.40;99.90;;;;;;5056099;28;20374;-81
2023/01/07 11:58:50;;;;;;;1.05;0.43;;;11.40;99.90;;;;;;5062141;28;20386;-80
2023/01/07 12:01:22;;;;;;;1.08;0.63;;;11.40;99.90;;;;;;5053114;28;20025;-80
2023/01/07 12:03:51;;;;;;;1.40;0.88;;;11.40;99.90;;;;;;5058080;28;20386;-80
2023/01/07 12:06:20;;;;;;;1.55;0.75;;;11.40;99.90;;;;;;5072641;28;20048;-79
2023/01/07 12:09:10;;;;;;;5.88;2.40;;;11.40;99.90;;;;;;5038258;28;20048;-81
2023/01/07 12:11:40;;;;;;;3.67;1.00;;;11.30;99.90;;;;;;5060314;28;20028;-80
2023/01/07 12:14:17;;;;;;;1.23;0.65;;;11.40;99.90;;;;;;5043807;28;20039;-80
2023/01/07 12:16:44;;;;;;;1.63;0.60;;;11.40;99.90;;;;;;5068148;28;20049;-81
2023/01/07 12:19:41;;;;;;;1.92;0.80;;;11.50;99.90;;;;;;5050051;28;20033;-80
2023/01/07 12:22:35;;;;;;;1.17;0.60;;;11.50;99.90;;;;;;5052940;28;20039;-79
2023/01/07 12:25:26;;;;;;;2.25;0.85;;;11.50;99.90;;;;;;5064830;28;20048;-80
2023/01/07 12:28:13;;;;;;;4.97;0.75;;;11.50;99.90;;;;;;5042540;28;20052;-77
2023/01/07 12:30:55;;;;;;;2.17;0.65;;;11.50;99.90;;;;;;5064287;28;20465;-79
2023/01/07 12:33:40;;;;;;;1.05;0.45;;;11.50;99.90;;;;;;5061637;28;20044;-80
2023/01/07 12:36:40;;;;;;;2.03;0.57;;;11.40;99.90;;;;;;5053298;28;20025;-80
2023/01/07 12:39:24;;;;;;;1.13;0.57;;;11.50;99.90;;;;;;5043036;28;20056;-80
2023/01/07 12:42:15;;;;;;;1.00;0.50;;;11.50;99.90;;;;;;5066336;28;20036;-81
2023/01/07 12:44:58;;;;;;;2.17;0.63;;;11.50;99.90;;;;;;5035801;28;20048;-82
2023/01/07 12:47:34;;;;;;;1.23;0.52;;;11.60;99.90;;;;;;5034786;28;20040;-82
2023/01/07 12:50:22;;;;;;;1.67;0.50;;;11.60;99.90;;;;;;5059122;28;20040;-81
2023/01/07 12:53:00;;;;;;;1.63;0.68;;;11.60;99.90;;;;;;5035860;28;20033;-81
2023/01/07 12:55:41;;;;;;;2.42;0.70;;;11.70;99.90;;;;;;5061744;28;20025;-81
2023/01/07 12:58:24;;;;;;;4.15;1.25;;;11.80;99.90;;;;;;5063245;28;20033;-81
2023/01/07 13:00:58;;;;;;;3.50;0.90;;;11.80;99.90;;;;;;5064140;28;20029;-82
2023/01/07 13:03:43;;;;;;;3.67;1.45;;;11.90;99.90;;;;;;5073568;28;20032;-81
2023/01/07 13:06:17;;;;;;;0.75;0.40;;;11.90;99.90;;;;;;5072276;28;20038;-81
2023/01/07 13:09:01;;;;;;;1.40;0.55;;;11.90;99.90;;;;;;5064441;28;20041;-81
2023/01/07 13:14:30;;;;;;;1.23;0.52;;;11.70;99.90;;;;;;5073549;28;20027;-83
2023/01/07 13:17:15;;;;;;;1.20;0.40;;;11.80;99.90;;;;;;5068322;28;20032;-82
2023/01/07 13:19:42;;;;;;;1.20;0.50;;;11.80;99.90;;;;;;5086579;28;20048;-82
2023/01/07 13:22:29;;;;;;;0.93;0.50;;;11.90;99.90;;;;;;5078980;28;20035;-79
2023/01/07 13:25:12;;;;;;;1.08;0.52;;;11.90;99.90;;;;;;5073564;28;20044;-78
2023/01/07 13:28:12;;;;;;;1.65;0.77;;;12.10;99.90;;;;;;5089047;28;20032;-79
2023/01/07 13:30:38;;;;;;;1.15;0.50;;;12.30;99.90;;;;;;5088110;28;20032;-77